Time;durP1;ratioP1;P1;durP2;ratioP2;P2;SDS_P1;SDS_P2;PMS_P1;PMS_P2;Temp;Humidity;BMP_temperature;BMP_pressure;BME280_temperature;BME280_humidity;BME280_pressure;Samples;Min_cycle;Max_cycle;Signal;HPM_P1;HPM_P2
2021/10/20 00:01:01;;;;;;;8.63;7.93;;;;;;;14.43;92.48;100250.47;4992842;28;20232;-77
2021/10/20 00:03:27;;;;;;;9.40;8.60;;;;;;;14.43;92.00;100245.22;5001829;28;20205;-77
2021/10/20 00:05:57;;;;;;;8.13;7.53;;;;;;;14.42;91.97;100243.53;5011394;28;20203;-77
2021/10/20 00:08:24;;;;;;;7.47;6.97;;;;;;;14.42;92.02;100257.50;5011822;28;20635;-77
2021/10/20 00:10:50;;;;;;;8.67;8.00;;;;;;;14.40;91.88;100259.34;5012613;28;20213;-77
2021/10/20 00:13:17;;;;;;;8.47;7.80;;;;;;;14.41;91.48;100255.81;5012475;28;20266;-77
2021/10/20 00:15:43;;;;;;;7.80;7.20;;;;;;;14.42;91.23;100275.91;5012175;28;20205;-77
2021/10/20 00:18:10;;;;;;;9.03;8.23;;;;;;;14.40;91.21;100259.34;5011382;28;20679;-77
2021/10/20 00:20:38;;;;;;;8.47;7.87;;;;;;;14.39;91.44;100268.16;5011972;28;20640;-77
2021/10/20 00:23:08;;;;;;;8.87;8.17;;;;;;;14.37;91.50;100253.34;5012216;28;20253;-77
2021/10/20 00:25:35;;;;;;;8.23;7.70;;;;;;;14.35;91.53;100252.53;5012418;28;20193;-77
2021/10/20 00:28:01;;;;;;;7.10;6.60;;;;;;;14.37;91.05;100253.34;5011616;28;20212;-76
2021/10/20 00:30:28;;;;;;;8.00;7.40;;;;;;;14.33;91.00;100263.13;5011325;28;20226;-78
2021/10/20 00:32:55;;;;;;;8.33;7.77;;;;;;;14.37;90.79;100258.59;5011995;28;20212;-77
2021/10/20 00:35:21;;;;;;;7.90;7.30;;;;;;;14.39;90.39;100276.03;5011984;28;20616;-77
2021/10/20 00:37:47;;;;;;;8.03;7.43;;;;;;;14.40;90.28;100269.00;5012234;28;20215;-77
2021/10/20 00:40:15;;;;;;;7.57;7.07;;;;;;;14.35;90.09;100276.19;5011821;28;20228;-77
2021/10/20 00:42:44;;;;;;;7.27;6.77;;;;;;;14.38;90.29;100266.44;5008177;28;20209;-77
2021/10/20 00:45:11;;;;;;;7.80;7.20;;;;;;;14.35;90.23;100266.56;4997814;28;20254;-77
2021/10/20 00:47:38;;;;;;;7.80;7.20;;;;;;;14.35;89.97;100265.69;5011327;28;20673;-77
2021/10/20 00:50:07;;;;;;;7.60;7.00;;;;;;;14.36;89.74;100265.63;5011987;28;20230;-77
2021/10/20 00:52:34;;;;;;;6.97;6.47;;;;;;;14.37;89.68;100276.97;5011924;28;20213;-77
2021/10/20 00:55:01;;;;;;;7.00;6.40;;;;;;;14.39;89.18;100293.53;5012032;28;20270;-77
2021/10/20 00:57:31;;;;;;;6.77;6.27;;;;;;;14.35;89.54;100271.81;5011659;28;20476;-77
2021/10/20 01:00:01;;;;;;;7.70;7.10;;;;;;;14.34;89.26;100275.34;5011000;28;20240;-77
2021/10/20 01:02:27;;;;;;;7.20;6.63;;;;;;;14.34;88.76;100275.34;5011615;28;20685;-77
2021/10/20 01:04:54;;;;;;;6.60;6.10;;;;;;;14.36;88.89;100281.38;5011821;28;20259;-77
2021/10/20 01:07:22;;;;;;;6.80;6.30;;;;;;;14.34;88.73;100280.59;5012056;28;20211;-77
2021/10/20 01:09:49;;;;;;;6.53;5.93;;;;;;;14.36;88.64;100286.63;5011732;28;20245;-77
2021/10/20 01:12:17;;;;;;;6.67;6.20;;;;;;;14.37;88.50;100291.00;5015193;28;20204;-77
2021/10/20 01:14:45;;;;;;;5.60;5.23;;;;;;;14.35;88.97;100274.44;5014011;28;20203;-77
2021/10/20 01:17:11;;;;;;;5.70;5.30;;;;;;;14.35;87.94;100284.06;4996279;28;20205;-77
2021/10/20 01:19:41;;;;;;;6.00;5.60;;;;;;;14.37;88.07;100288.34;4995663;28;20232;-77
2021/10/20 01:22:09;;;;;;;6.33;5.80;;;;;;;14.37;87.87;100287.47;4996348;28;20215;-77
2021/10/20 01:24:35;;;;;;;10.90;5.90;;;;;;;14.37;87.53;100287.47;4995980;28;20264;-77
2021/10/20 01:27:02;;;;;;;6.20;5.70;;;;;;;14.36;87.66;100283.16;4996999;28;20212;-76
2021/10/20 01:29:30;;;;;;;6.13;5.73;;;;;;;14.37;88.00;100280.47;4995655;28;20224;-77
2021/10/20 01:31:59;;;;;;;6.10;5.60;;;;;;;14.36;87.72;100286.63;4996035;28;20227;-77
2021/10/20 01:34:27;;;;;;;6.53;6.03;;;;;;;14.39;87.81;100288.28;5013335;28;20231;-77
2021/10/20 01:36:54;;;;;;;6.43;6.03;;;;;;;14.31;88.00;100280.72;5016056;28;20204;-77
2021/10/20 01:39:22;;;;;;;6.03;5.57;;;;;;;14.30;88.14;100263.22;5015216;28;20231;-77
2021/10/20 01:41:49;;;;;;;5.53;5.13;;;;;;;14.25;88.06;100252.91;5015735;28;20270;-77
2021/10/20 01:44:16;;;;;;;5.30;5.00;;;;;;;14.25;87.69;100254.66;5015700;28;20210;-77
2021/10/20 01:46:43;;;;;;;5.90;5.40;;;;;;;14.26;88.06;100254.59;5016047;28;20226;-77
2021/10/20 01:49:09;;;;;;;5.83;5.43;;;;;;;14.21;88.29;100247.81;5014845;28;20227;-77
2021/10/20 01:51:36;;;;;;;6.30;5.90;;;;;;;14.23;88.08;100238.09;5015086;28;20230;-77
2021/10/20 01:54:02;;;;;;;6.30;5.80;;;;;;;14.23;87.81;100236.34;5014965;28;20265;-77
2021/10/20 01:56:30;;;;;;;6.73;6.07;;;;;;;14.20;87.74;100246.13;5015243;28;20208;-77
2021/10/20 01:58:56;;;;;;;6.13;5.63;;;;;;;14.22;87.48;100253.00;5000206;28;20939;-77
2021/10/20 02:01:23;;;;;;;6.17;5.67;;;;;;;14.24;87.24;100255.59;4995208;28;20283;-77
2021/10/20 02:03:49;;;;;;;5.53;5.20;;;;;;;14.26;86.58;100269.50;5006749;28;20212;-77
2021/10/20 02:06:20;;;;;;;5.83;5.37;;;;;;;14.27;86.40;100279.09;5014968;28;20209;-77
2021/10/20 02:08:47;;;;;;;5.77;5.37;;;;;;;14.24;86.21;100272.19;5014337;28;20234;-77
2021/10/20 02:11:15;;;;;;;6.37;5.63;;;;;;;14.24;86.50;100260.84;5014806;28;20239;-77
2021/10/20 02:13:43;;;;;;;5.53;5.13;;;;;;;14.26;86.64;100269.50;5014740;28;20206;-77
2021/10/20 02:16:09;;;;;;;4.77;4.47;;;;;;;14.25;85.95;100265.16;5013513;28;20217;-77
2021/10/20 02:18:36;;;;;;;5.23;4.93;;;;;;;14.25;85.67;100270.41;4994045;28;20227;-77
2021/10/20 02:21:04;;;;;;;5.57;5.07;;;;;;;14.26;85.73;100285.25;4994820;28;20733;-77
2021/10/20 02:23:31;;;;;;;5.27;4.87;;;;;;;14.29;85.39;100283.38;4994191;28;20204;-77
2021/10/20 02:25:57;;;;;;;5.27;4.87;;;;;;;14.32;85.29;100289.44;4995479;28;20282;-78
2021/10/20 02:28:24;;;;;;;5.47;5.07;;;;;;;14.33;85.20;100285.88;5014532;28;20274;-77
2021/10/20 02:30:52;;;;;;;5.20;4.90;;;;;;;14.32;85.29;100278.94;5015268;28;20204;-77
2021/10/20 02:33:18;;;;;;;5.30;4.90;;;;;;;14.34;84.96;100279.75;5014683;28;20213;-77
2021/10/20 02:35:45;;;;;;;4.53;4.23;;;;;;;14.28;84.84;100278.19;5015214;28;20200;-78
2021/10/20 02:38:11;;;;;;;4.70;4.33;;;;;;;14.26;84.46;100286.13;5014908;28;20262;-77
2021/10/20 02:40:38;;;;;;;5.13;4.73;;;;;;;14.30;84.23;100302.63;5014524;28;20292;-77
2021/10/20 02:43:04;;;;;;;5.73;5.00;;;;;;;14.33;84.52;100293.75;5014269;28;20212;-77
2021/10/20 02:45:31;;;;;;;5.10;4.70;;;;;;;14.34;83.99;100298.13;5012360;28;20626;-77
2021/10/20 02:47:59;;;;;;;5.03;4.63;;;;;;;14.29;83.71;100309.66;5014478;28;20218;-77
2021/10/20 02:50:28;;;;;;;5.30;4.80;;;;;;;14.27;84.28;100285.22;5014471;28;20282;-77
2021/10/20 02:52:55;;;;;;;4.10;3.80;;;;;;;14.26;83.54;100311.53;5014410;28;20208;-78
2021/10/20 02:55:21;;;;;;;4.50;4.20;;;;;;;14.29;83.40;100299.16;5014780;28;20199;-77
2021/10/20 02:57:47;;;;;;;5.00;4.37;;;;;;;14.33;83.15;100322.66;5014421;28;20216;-77
2021/10/20 03:00:15;;;;;;;4.60;4.30;;;;;;;14.34;83.12;100313.88;5014584;28;20235;-77
2021/10/20 03:02:42;;;;;;;4.67;4.30;;;;;;;14.33;83.12;100310.41;5014212;28;20266;-77
2021/10/20 03:05:10;;;;;;;4.30;4.00;;;;;;;14.32;83.13;100313.91;5014525;28;20201;-77
2021/10/20 03:07:36;;;;;;;4.50;4.20;;;;;;;14.30;83.06;100316.59;5014515;28;20260;-78
2021/10/20 03:10:03;;;;;;;4.50;4.20;;;;;;;14.34;83.03;100301.59;5013720;28;20777;-77
2021/10/20 03:12:30;;;;;;;4.53;4.10;;;;;;;14.33;82.92;100291.13;5014459;28;20215;-77
2021/10/20 03:14:56;;;;;;;4.80;4.40;;;;;;;14.29;82.86;100308.75;5014241;28;20218;-77
2021/10/20 03:17:24;;;;;;;4.93;4.63;;;;;;;14.28;82.53;100304.44;5014325;28;20211;-77
2021/10/20 03:19:51;;;;;;;4.63;4.33;;;;;;;14.33;82.23;100315.66;5013382;28;20230;-78
2021/10/20 03:22:18;;;;;;;4.80;4.40;;;;;;;14.34;81.95;100337.50;5014121;28;20228;-77
2021/10/20 03:24:45;;;;;;;5.67;4.80;;;;;;;14.34;81.78;100324.38;5013660;28;20278;-77
2021/10/20 03:27:11;;;;;;;4.50;4.20;;;;;;;14.34;81.53;100340.97;5013761;28;20223;-77
2021/10/20 03:29:38;;;;;;;4.67;4.37;;;;;;;14.33;81.53;100331.41;5013280;28;20240;-77
2021/10/20 03:32:05;;;;;;;4.63;4.33;;;;;;;14.32;81.78;100315.69;5013818;28;20274;-77
2021/10/20 03:34:31;;;;;;;4.53;4.23;;;;;;;14.32;81.45;100340.19;5013281;28;20210;-77
2021/10/20 03:36:58;;;;;;;4.67;4.20;;;;;;;14.34;81.58;100345.38;5002498;28;20856;-77
2021/10/20 03:39:26;;;;;;;4.70;4.40;;;;;;;14.32;81.02;100332.31;4993634;28;20289;-77
2021/10/20 03:41:52;;;;;;;5.23;4.83;;;;;;;14.35;81.02;100347.97;5011446;28;20230;-77
2021/10/20 03:44:18;;;;;;;4.37;3.97;;;;;;;14.35;81.22;100316.44;5013868;28;20267;-77
2021/10/20 03:46:45;;;;;;;4.37;3.97;;;;;;;14.34;81.65;100308.63;5013096;28;20202;-77
2021/10/20 03:49:11;;;;;;;4.13;3.73;;;;;;;14.29;81.18;100329.78;5013400;28;20224;-77
2021/10/20 03:51:38;;;;;;;4.40;4.00;;;;;;;14.28;80.82;100328.06;5013630;28;20234;-77
2021/10/20 03:54:04;;;;;;;3.67;3.37;;;;;;;14.34;80.43;100329.63;5013275;28;20200;-77
2021/10/20 03:56:32;;;;;;;4.70;4.00;;;;;;;14.33;80.56;100331.41;5013113;28;20220;-77
2021/10/20 03:58:58;;;;;;;4.53;4.23;;;;;;;14.36;80.89;100307.63;5012773;28;20730;-77
2021/10/20 04:01:25;;;;;;;5.13;4.60;;;;;;;14.33;80.50;100315.66;5013260;28;20224;-77
2021/10/20 04:03:51;;;;;;;4.07;3.77;;;;;;;14.38;79.92;100324.19;5012762;28;20208;-77
2021/10/20 04:06:18;;;;;;;4.03;3.80;;;;;;;14.39;79.39;100328.56;5012849;28;20640;-77
2021/10/20 04:08:44;;;;;;;4.30;4.00;;;;;;;14.39;80.16;100322.41;5012741;28;20235;-77
2021/10/20 04:11:10;;;;;;;4.00;3.80;;;;;;;14.39;79.89;100309.28;5013028;28;20200;-77
2021/10/20 04:13:38;;;;;;;3.73;3.43;;;;;;;14.35;80.19;100289.31;5013053;28;20208;-78
2021/10/20 04:16:05;;;;;;;4.80;4.40;;;;;;;14.38;79.70;100307.59;5013165;28;20580;-77
2021/10/20 04:18:32;;;;;;;3.47;3.27;;;;;;;14.42;79.26;100338.06;5012006;28;20627;-77
2021/10/20 04:20:58;;;;;;;3.30;3.10;;;;;;;14.39;79.27;100325.03;5013150;28;20232;-77
2021/10/20 04:23:25;;;;;;;4.27;3.97;;;;;;;14.37;79.23;100327.75;5012860;28;20265;-77
2021/10/20 04:25:51;;;;;;;3.67;3.33;;;;;;;14.37;79.66;100304.13;5012837;28;20616;-77
2021/10/20 04:28:18;;;;;;;4.33;4.03;;;;;;;14.36;79.46;100299.75;4999305;28;20683;-77
2021/10/20 04:30:45;;;;;;;3.70;3.40;;;;;;;14.38;78.74;100323.34;4993405;28;20262;-77
2021/10/20 04:33:12;;;;;;;3.80;3.40;;;;;;;14.37;79.08;100308.50;5000320;28;20204;-77
2021/10/20 04:35:38;;;;;;;4.13;3.83;;;;;;;14.38;78.71;100308.44;5013070;28;20204;-77
2021/10/20 04:38:05;;;;;;;4.10;3.80;;;;;;;14.43;78.24;100316.13;5012915;28;20265;-77
2021/10/20 04:40:31;;;;;;;3.57;3.30;;;;;;;14.50;77.63;100359.66;5012806;28;20286;-77
2021/10/20 04:42:58;;;;;;;3.90;3.60;;;;;;;14.54;77.95;100340.25;5012871;28;20262;-77
2021/10/20 04:45:24;;;;;;;3.73;3.53;;;;;;;14.54;77.31;100361.25;5004456;28;20224;-77
2021/10/20 04:47:52;;;;;;;4.13;3.83;;;;;;;14.56;77.38;100358.59;4997098;28;20233;-77
2021/10/20 04:50:19;;;;;;;4.80;4.40;;;;;;;14.58;77.50;100347.13;4996363;28;20228;-77
2021/10/20 04:52:45;;;;;;;3.90;3.60;;;;;;;14.54;77.71;100331.53;4997339;28;20290;-77
2021/10/20 04:55:12;;;;;;;4.17;3.87;;;;;;;14.46;77.43;100329.16;4996942;28;20725;-77
2021/10/20 04:57:38;;;;;;;3.90;3.60;;;;;;;14.51;77.55;100332.50;4997106;28;20209;-77
2021/10/20 05:00:07;;;;;;;4.33;3.67;;;;;;;14.50;77.74;100323.75;4996655;28;20244;-77
2021/10/20 05:02:36;;;;;;;4.23;3.77;;;;;;;14.53;77.20;100350.81;5011597;28;20232;-78
2021/10/20 05:05:05;;;;;;;4.37;3.97;;;;;;;14.52;77.45;100331.56;5016287;28;20207;-77
2021/10/20 05:07:31;;;;;;;4.20;3.80;;;;;;;14.50;76.95;100342.13;5016553;28;20572;-77
2021/10/20 05:09:58;;;;;;;4.17;3.87;;;;;;;14.50;77.59;100320.25;5015706;28;20592;-77
2021/10/20 05:12:24;;;;;;;4.43;4.03;;;;;;;14.49;77.44;100323.81;5016333;28;20248;-77
2021/10/20 05:14:51;;;;;;;4.33;3.90;;;;;;;14.47;77.21;100330.91;5016558;28;20207;-77
2021/10/20 05:17:17;;;;;;;4.47;4.17;;;;;;;14.46;77.04;100340.53;5016658;28;20547;-77
2021/10/20 05:19:44;;;;;;;4.57;4.23;;;;;;;14.46;76.96;100327.41;5015927;28;20255;-77
2021/10/20 05:22:11;;;;;;;4.20;3.90;;;;;;;14.49;76.27;100363.22;5015764;28;20238;-77
2021/10/20 05:24:38;;;;;;;4.60;4.20;;;;;;;14.53;76.33;100345.56;5016600;28;20205;-78
2021/10/20 05:27:05;;;;;;;7.70;4.07;;;;;;;14.53;76.07;100356.06;5017263;28;20275;-77
2021/10/20 05:29:33;;;;;;;4.67;4.37;;;;;;;14.53;76.21;100367.44;5016304;28;20235;-77
2021/10/20 05:32:00;;;;;;;4.70;4.40;;;;;;;14.57;75.97;100368.19;5016343;28;20267;-77
2021/10/20 05:34:27;;;;;;;4.33;4.03;;;;;;;14.55;75.88;100362.09;5015778;28;20200;-77
2021/10/20 05:36:53;;;;;;;4.50;4.20;;;;;;;14.57;76.09;100369.06;5015798;28;20207;-77
2021/10/20 05:39:21;;;;;;;5.23;4.17;;;;;;;14.56;76.41;100341.06;5014989;28;20239;-77
2021/10/20 05:41:50;;;;;;;4.97;4.53;;;;;;;14.49;75.75;100350.94;5015150;28;20239;-77
2021/10/20 05:44:16;;;;;;;4.20;3.90;;;;;;;14.53;76.16;100340.28;5015200;28;20575;-77
2021/10/20 05:46:43;;;;;;;4.57;4.17;;;;;;;14.57;75.96;100332.31;5014720;28;20213;-77
2021/10/20 05:49:09;;;;;;;4.63;4.20;;;;;;;14.56;76.28;100329.69;5014489;28;20227;-77
2021/10/20 05:51:36;;;;;;;5.40;4.90;;;;;;;14.55;76.32;100334.09;5015045;28;20203;-77
2021/10/20 05:54:02;;;;;;;4.73;4.33;;;;;;;14.55;76.76;100312.19;5014794;28;20207;-77
2021/10/20 05:56:30;;;;;;;4.37;3.97;;;;;;;14.53;76.07;100325.41;5014511;28;20208;-77
2021/10/20 05:58:56;;;;;;;4.73;4.43;;;;;;;14.49;77.27;100294.94;5014834;28;20234;-78
2021/10/20 06:01:23;;;;;;;5.27;4.87;;;;;;;14.53;77.49;100296.53;5015350;28;20282;-78
2021/10/20 06:03:49;;;;;;;5.97;4.83;;;;;;;14.57;78.07;100273.63;5014565;28;20211;-77
2021/10/20 06:06:16;;;;;;;4.93;4.53;;;;;;;14.59;76.81;100296.31;5013634;28;20203;-77
2021/10/20 06:08:42;;;;;;;5.37;4.33;;;;;;;14.61;77.78;100262.97;5014433;28;20231;-77
2021/10/20 06:11:09;;;;;;;4.83;4.33;;;;;;;14.65;77.15;100277.69;5014325;28;20212;-77
2021/10/20 06:13:37;;;;;;;5.03;4.63;;;;;;;14.67;76.37;100324.94;5005620;28;20202;-77
2021/10/20 06:16:03;;;;;;;4.33;4.03;;;;;;;14.63;76.19;100315.47;5004500;28;20210;-78
2021/10/20 06:18:30;;;;;;;4.53;4.13;;;;;;;14.70;76.26;100335.31;5005601;28;20610;-78
2021/10/20 06:20:57;;;;;;;4.37;3.97;;;;;;;14.69;76.33;100321.31;5005652;28;20730;-79
2021/10/20 06:23:23;;;;;;;4.33;3.93;;;;;;;14.69;75.96;100338.88;5008320;28;20225;-80
2021/10/20 06:25:50;;;;;;;4.00;3.70;;;;;;;14.73;75.73;100334.31;5011434;28;20204;-81
2021/10/20 06:28:16;;;;;;;4.23;3.83;;;;;;;14.68;75.62;100334.50;5012552;28;20604;-82
2021/10/20 06:30:44;;;;;;;15.70;6.57;;;;;;;14.75;76.29;100335.16;5016128;28;20203;-80
2021/10/20 06:33:11;;;;;;;6.90;4.47;;;;;;;14.75;76.21;100322.88;5018467;28;20219;-81
2021/10/20 06:35:37;;;;;;;4.90;4.60;;;;;;;14.78;75.20;100333.25;5016412;28;20200;-80
2021/10/20 06:38:04;;;;;;;4.60;4.20;;;;;;;14.81;75.03;100358.56;5010025;28;20208;-80
2021/10/20 06:40:31;;;;;;;4.70;4.30;;;;;;;14.77;74.81;100368.34;5004640;28;20250;-81
2021/10/20 06:42:57;;;;;;;4.70;4.30;;;;;;;14.85;76.50;100315.50;5017514;28;20223;-81
2021/10/20 06:45:24;;;;;;;4.80;4.07;;;;;;;14.87;75.02;100351.31;5015806;28;20204;-80
2021/10/20 06:47:52;;;;;;;4.53;4.13;;;;;;;14.85;75.17;100347.03;5011447;28;20215;-82
2021/10/20 06:50:20;;;;;;;4.87;4.53;;;;;;;14.81;74.98;100348.06;4998370;28;20224;-84
2021/10/20 06:52:46;;;;;;;4.70;4.30;;;;;;;14.88;76.19;100310.09;5009402;28;20211;-83
2021/10/20 06:55:13;;;;;;;4.50;4.20;;;;;;;14.83;75.68;100322.56;5000514;28;20913;-81
2021/10/20 06:57:41;;;;;;;4.70;4.27;;;;;;;14.86;75.99;100311.94;5003575;28;20258;-79
2021/10/20 07:00:09;;;;;;;6.47;5.00;;;;;;;14.80;74.51;100362.94;5010523;28;20228;-81
2021/10/20 07:02:36;;;;;;;4.07;3.77;;;;;;;14.86;75.58;100344.31;5009965;28;20233;-82
2021/10/20 07:05:05;;;;;;;5.03;4.63;;;;;;;14.91;76.55;100310.00;5011514;28;20238;-81
2021/10/20 07:07:31;;;;;;;3.97;3.67;;;;;;;14.92;76.09;100309.06;5008066;28;20290;-81
2021/10/20 07:09:58;;;;;;;4.30;4.00;;;;;;;14.84;75.23;100340.03;5005475;28;20755;-80
2021/10/20 07:12:24;;;;;;;4.80;4.40;;;;;;;14.89;75.72;100311.81;5009415;28;20818;-79
2021/10/20 07:14:51;;;;;;;6.27;4.77;;;;;;;14.93;75.77;100302.91;5005832;28;20212;-81
2021/10/20 07:17:17;;;;;;;5.03;4.53;;;;;;;14.97;75.68;100298.38;5007102;28;20209;-82
2021/10/20 07:19:44;;;;;;;4.50;4.10;;;;;;;14.96;75.59;100301.91;5005377;28;20279;-80
2021/10/20 07:22:11;;;;;;;5.10;4.63;;;;;;;14.99;75.13;100302.66;5006809;28;20220;-81
2021/10/20 07:24:39;;;;;;;4.00;3.70;;;;;;;15.03;76.72;100256.94;5011029;28;20208;-80
2021/10/20 07:27:06;;;;;;;5.23;4.83;;;;;;;15.01;75.49;100287.69;5005800;28;20231;-80
2021/10/20 07:29:33;;;;;;;4.67;3.77;;;;;;;15.03;75.98;100280.59;5008974;28;20264;-81
2021/10/20 07:31:59;;;;;;;4.67;4.30;;;;;;;15.01;74.88;100315.75;5007385;28;20207;-79
2021/10/20 07:34:26;;;;;;;4.73;4.20;;;;;;;15.06;76.00;100266.47;5014180;28;20207;-80
2021/10/20 07:36:52;;;;;;;4.17;3.87;;;;;;;15.02;75.11;100301.66;5010114;28;20201;-80
2021/10/20 07:39:21;;;;;;;4.80;4.40;;;;;;;15.02;75.87;100273.59;5004321;28;20243;-80
2021/10/20 07:41:48;;;;;;;5.10;4.63;;;;;;;15.06;75.85;100285.75;5005574;28;20227;-81
2021/10/20 07:44:15;;;;;;;4.30;3.90;;;;;;;15.06;75.21;100295.38;5007692;28;20233;-80
2021/10/20 07:46:42;;;;;;;5.30;4.80;;;;;;;15.02;75.14;100302.53;5005911;28;20204;-80
2021/10/20 07:49:10;;;;;;;7.30;4.77;;;;;;;15.03;75.13;100300.78;5007740;28;20287;-81
2021/10/20 07:51:36;;;;;;;4.63;4.33;;;;;;;15.06;75.82;100272.59;5007123;28;20200;-82
2021/10/20 07:54:03;;;;;;;4.87;4.47;;;;;;;15.01;75.66;100269.28;5007218;28;20266;-78
2021/10/20 07:56:33;;;;;;;4.83;4.43;;;;;;;15.04;75.89;100258.66;5006474;28;20201;-81
2021/10/20 07:59:00;;;;;;;5.00;4.70;;;;;;;15.08;74.66;100298.78;5006321;28;20215;-81
2021/10/20 08:01:27;;;;;;;4.33;4.00;;;;;;;15.05;74.48;100296.31;5003714;28;20201;-82
2021/10/20 08:03:53;;;;;;;5.27;4.77;;;;;;;15.07;74.31;100295.31;5011240;28;20621;-80
2021/10/20 08:06:20;;;;;;;4.60;4.20;;;;;;;15.02;74.39;100285.91;5014317;28;20674;-82
2021/10/20 08:08:46;;;;;;;4.30;4.00;;;;;;;15.01;73.42;100311.34;5013122;28;20221;-81
2021/10/20 08:11:13;;;;;;;4.83;4.50;;;;;;;15.07;74.28;100287.44;5016868;28;20212;-81
2021/10/20 08:13:40;;;;;;;4.60;4.17;;;;;;;15.09;73.77;100296.13;5014034;28;20207;-80
2021/10/20 08:16:07;;;;;;;4.70;4.30;;;;;;;15.13;74.05;100288.13;5011458;28;20216;-80
2021/10/20 08:18:33;;;;;;;4.57;4.17;;;;;;;15.11;73.79;100298.69;5009027;28;20677;-81
2021/10/20 08:21:00;;;;;;;4.80;4.40;;;;;;;15.18;74.85;100270.38;5003722;28;20199;-83
2021/10/20 08:23:28;;;;;;;5.27;4.63;;;;;;;15.21;74.79;100257.09;5012443;28;20267;-80
2021/10/20 08:25:55;;;;;;;5.00;4.60;;;;;;;15.19;75.59;100222.97;5006925;28;20295;-81
2021/10/20 08:28:21;;;;;;;4.40;4.10;;;;;;;15.25;74.82;100240.28;5007448;28;20894;-81
2021/10/20 08:30:50;;;;;;;4.30;4.00;;;;;;;15.18;76.03;100213.41;5004674;28;20205;-85
2021/10/20 08:33:17;;;;;;;4.50;4.13;;;;;;;15.22;75.19;100241.28;5016081;28;20592;-84
2021/10/20 08:35:43;;;;;;;5.00;4.60;;;;;;;15.16;73.14;100277.47;5019711;28;20212;-85
2021/10/20 08:38:10;;;;;;;4.60;4.00;;;;;;;15.14;73.20;100285.41;5016448;28;20203;-81
2021/10/20 08:40:45;;;;;;;4.47;4.07;;;;;;;15.13;73.53;100283.72;5012481;28;20222;-83
2021/10/20 08:43:12;;;;;;;5.77;4.60;;;;;;;15.15;73.47;100258.22;5013883;28;20215;-80
2021/10/20 08:45:38;;;;;;;5.07;4.57;;;;;;;15.30;74.61;100214.63;5016442;28;20210;-79
2021/10/20 08:48:07;;;;;;;4.60;4.10;;;;;;;15.25;73.02;100254.28;5016948;28;20238;-80
2021/10/20 08:50:35;;;;;;;3.80;3.50;;;;;;;15.25;73.71;100216.63;5018599;28;20701;-80
2021/10/20 08:53:03;;;;;;;4.37;3.97;;;;;;;15.28;72.92;100192.81;5010803;28;20204;-80
2021/10/20 08:55:29;;;;;;;5.73;4.80;;;;;;;15.30;72.47;100222.50;5005727;28;20736;-80
2021/10/20 08:57:57;;;;;;;5.50;3.90;;;;;;;15.34;72.81;100221.50;5007818;28;20201;-81
2021/10/20 09:00:24;;;;;;;4.37;3.70;;;;;;;15.31;73.21;100195.31;5007405;28;20225;-81
2021/10/20 09:02:51;;;;;;;4.17;3.87;;;;;;;15.33;72.24;100227.66;5011649;28;20224;-81
2021/10/20 09:05:21;;;;;;;4.30;3.90;;;;;;;15.41;72.87;100201.88;5012747;28;20200;-81
2021/10/20 09:07:50;;;;;;;3.33;3.13;;;;;;;15.43;72.74;100183.41;5008989;28;20226;-81
2021/10/20 09:10:18;;;;;;;4.10;3.73;;;;;;;15.46;73.09;100167.47;5012518;28;20224;-81
2021/10/20 09:12:44;;;;;;;4.50;4.10;;;;;;;15.49;72.77;100204.19;5018276;28;20219;-81
2021/10/20 09:15:15;;;;;;;4.20;3.80;;;;;;;15.53;71.61;100220.72;5016909;28;20199;-81
2021/10/20 09:17:44;;;;;;;4.97;4.17;;;;;;;15.61;73.05;100187.88;5018424;28;20212;-81
2021/10/20 09:20:22;;;;;;;4.57;4.17;;;;;;;15.67;72.58;100221.81;5011885;28;20319;-81
2021/10/20 09:22:55;;;;;;;3.87;3.57;;;;;;;15.70;72.19;100236.63;5013310;28;20584;-81
2021/10/20 09:25:22;;;;;;;4.03;3.67;;;;;;;15.74;71.90;100208.41;5008462;28;20208;-81
2021/10/20 09:27:49;;;;;;;3.80;3.50;;;;;;;15.78;71.76;100196.84;5000191;28;20619;-81
2021/10/20 09:30:16;;;;;;;7.13;3.60;;;;;;;15.83;71.51;100202.75;5000150;28;20324;-81
2021/10/20 09:32:43;;;;;;;4.53;3.83;;;;;;;15.94;71.82;100197.88;5018031;28;20217;-81
2021/10/20 09:35:11;;;;;;;4.20;3.90;;;;;;;15.96;71.54;100201.28;5019150;28;20201;-81
2021/10/20 09:37:39;;;;;;;5.87;4.07;;;;;;;16.06;72.07;100162.22;5012234;28;20684;-82
2021/10/20 09:40:08;;;;;;;4.13;3.83;;;;;;;16.13;71.95;100170.69;5012013;28;20644;-81
2021/10/20 09:42:45;;;;;;;5.83;3.00;;;;;;;16.20;71.29;100193.19;5017770;28;20725;-81
2021/10/20 09:45:14;;;;;;;4.47;4.07;;;;;;;16.19;70.63;100199.38;5021183;28;20678;-81
2021/10/20 09:47:40;;;;;;;3.60;3.30;;;;;;;16.22;71.42;100170.28;5021438;28;20209;-81
2021/10/20 09:50:08;;;;;;;3.43;3.23;;;;;;;16.25;70.52;100197.31;5019681;28;20598;-81
2021/10/20 09:52:47;;;;;;;4.70;3.60;;;;;;;16.26;70.96;100199.00;5014681;28;20690;-81
2021/10/20 09:55:14;;;;;;;3.90;3.60;;;;;;;16.17;70.79;100217.88;5013012;28;20200;-81
2021/10/20 09:57:41;;;;;;;4.53;3.67;;;;;;;16.10;71.26;100197.19;5010737;28;20209;-81
2021/10/20 10:00:08;;;;;;;3.77;3.47;;;;;;;16.03;72.31;100163.19;5008833;28;20286;-80
2021/10/20 10:02:35;;;;;;;4.17;3.50;;;;;;;15.93;72.39;100148.75;5012469;28;20228;-80
2021/10/20 10:05:01;;;;;;;3.50;3.17;;;;;;;15.89;72.38;100163.81;5018742;28;20297;-81
2021/10/20 10:07:28;;;;;;;3.70;3.40;;;;;;;15.90;73.00;100125.22;5014846;28;20339;-80
2021/10/20 10:09:56;;;;;;;3.70;3.50;;;;;;;15.95;73.08;100125.84;5012550;28;20221;-80
2021/10/20 10:12:27;;;;;;;3.87;3.63;;;;;;;15.99;73.28;100100.22;5021199;28;20942;-80
2021/10/20 10:14:58;;;;;;;4.53;4.13;;;;;;;16.03;73.25;100084.22;5012169;28;20990;-80
2021/10/20 10:17:25;;;;;;;3.80;3.50;;;;;;;16.10;73.70;100078.69;5014040;28;20202;-81
2021/10/20 10:19:52;;;;;;;3.80;3.50;;;;;;;16.15;73.56;100084.56;5026171;28;20232;-81
2021/10/20 10:22:23;;;;;;;4.00;3.70;;;;;;;16.22;73.35;100083.34;5019242;28;20212;-81
2021/10/20 10:24:49;;;;;;;6.30;3.97;;;;;;;16.28;73.43;100078.63;5019937;28;20209;-81
2021/10/20 10:27:17;;;;;;;4.20;3.80;;;;;;;16.39;74.06;100056.19;5018653;28;20709;-81
2021/10/20 10:29:48;;;;;;;4.50;4.20;;;;;;;16.55;73.21;100080.88;5010959;28;20733;-81
2021/10/20 10:32:18;;;;;;;4.30;3.93;;;;;;;16.64;72.85;100076.91;5002369;28;20283;-81
2021/10/20 10:34:46;;;;;;;4.43;4.03;;;;;;;16.79;71.98;100099.88;5014824;28;20307;-82
2021/10/20 10:37:23;;;;;;;4.13;3.83;;;;;;;16.90;71.87;100093.22;5013467;28;20216;-81
2021/10/20 10:39:50;;;;;;;4.53;4.13;;;;;;;17.04;72.14;100078.41;5017575;28;20230;-81
2021/10/20 10:42:18;;;;;;;5.30;4.90;;;;;;;17.20;72.02;100081.09;5016253;28;20203;-83
2021/10/20 10:44:48;;;;;;;4.50;4.20;;;;;;;17.35;72.55;100074.16;5021505;28;20200;-82
2021/10/20 10:47:19;;;;;;;4.00;3.80;;;;;;;17.32;70.41;100145.53;5015280;28;20201;-82
2021/10/20 10:49:53;;;;;;;4.90;3.83;;;;;;;17.45;70.87;100128.16;5038430;28;20225;-82
2021/10/20 10:52:32;;;;;;;4.10;3.80;;;;;;;17.55;71.22;100103.94;5033446;28;20209;-83
2021/10/20 10:55:16;;;;;;;3.87;3.57;;;;;;;17.68;70.89;100102.34;5018663;28;20206;-82
2021/10/20 10:57:50;;;;;;;4.60;4.20;;;;;;;17.74;69.99;100122.25;5011829;28;20206;-80
2021/10/20 11:00:45;;;;;;;4.33;4.03;;;;;;;17.81;69.82;100147.41;5017235;28;20267;-84
2021/10/20 11:03:22;;;;;;;4.27;3.90;;;;;;;17.77;69.91;100135.31;5004502;28;20220;-80
2021/10/20 11:05:51;;;;;;;5.07;4.47;;;;;;;17.76;69.93;100141.50;5013882;28;20230;-81
2021/10/20 11:09:06;;;;;;;5.03;4.07;;;;;;;17.65;69.33;100119.19;5008798;28;20204;-87
2021/10/20 11:11:32;;;;;;;5.37;4.00;;;;;;;17.75;69.39;100126.63;5005297;28;20202;-79
2021/10/20 11:14:01;;;;;;;6.60;4.53;;;;;;;17.77;70.52;100093.06;5011498;28;20893;-81
2021/10/20 11:16:28;;;;;;;4.73;4.33;;;;;;;17.89;70.05;100092.41;5020664;28;20209;-80
2021/10/20 11:18:55;;;;;;;4.43;4.03;;;;;;;17.99;69.65;100076.91;5008894;28;20235;-85
2021/10/20 11:21:23;;;;;;;5.07;4.60;;;;;;;18.05;69.41;100095.06;4997167;28;20217;-82
2021/10/20 11:23:50;;;;;;;4.83;4.40;;;;;;;17.95;68.63;100138.75;4997967;28;20227;-80
2021/10/20 11:26:16;;;;;;;5.00;4.60;;;;;;;18.01;69.37;100104.09;4998229;28;20203;-83